Time;durP1;ratioP1;P1;durP2;ratioP2;P2;SDS_P1;SDS_P2;PMS_P1;PMS_P2;Temp;Humidity;BMP_temperature;BMP_pressure;BME280_temperature;BME280_humidity;BME280_pressure;Samples;Min_cycle;Max_cycle;Signal;HPM_P1;HPM_P2
2021/04/13 00:02:48;;;;;;;10.08;8.88;;;;;;;17.20;54.51;100124.68;1766635;80;21157;-60
2021/04/13 00:05:45;;;;;;;11.50;9.15;;;;;;;17.18;54.52;100128.90;1763792;81;21583;-61
2021/04/13 00:08:21;;;;;;;9.70;8.70;;;;;;;17.16;54.54;100122.09;1739891;82;21464;-61
2021/04/13 00:11:02;;;;;;;10.80;8.73;;;;;;;17.14;54.54;100124.97;1719105;81;21223;-61
2021/04/13 00:13:37;;;;;;;10.00;9.00;;;;;;;17.14;54.55;100121.47;1702177;82;21536;-61
2021/04/13 00:16:13;;;;;;;10.17;9.27;;;;;;;17.13;54.52;100120.61;1725969;82;21200;-61
2021/04/13 00:18:42;;;;;;;12.30;9.50;;;;;;;17.13;54.54;100122.48;1721824;82;21540;-61
2021/04/13 00:21:28;;;;;;;10.10;9.08;;;;;;;17.12;54.58;100115.47;1735543;82;22283;-61
2021/04/13 00:24:01;;;;;;;10.25;8.63;;;;;;;17.13;54.51;100118.45;1722585;82;21228;-61
2021/04/13 00:26:29;;;;;;;10.48;9.38;;;;;;;17.13;54.45;100120.61;1731481;82;21162;-61
2021/04/13 00:29:02;;;;;;;10.50;9.40;;;;;;;17.13;54.42;100115.25;1716523;82;21675;-61
2021/04/13 00:34:23;;;;;;;9.90;8.88;;;;;;;17.13;54.43;100115.25;1726540;82;21599;-60
2021/04/13 00:36:55;;;;;;;10.03;9.03;;;;;;;17.14;54.36;100116.09;1736122;82;21141;-60
2021/04/13 00:39:27;;;;;;;10.70;9.60;;;;;;;17.13;54.43;100121.95;1733192;82;21788;-60
2021/04/13 00:41:59;;;;;;;;;;;;;;;17.12;54.39;100115.47;1718231;82;21174;-60
2021/04/13 00:44:27;;;;;;;9.28;8.30;;;;;;;17.13;54.37;100123.30;1725352;82;20325;-62
2021/04/13 00:47:06;;;;;;;10.35;9.25;;;;;;;17.05;54.48;100124.83;1719658;82;22121;-61
2021/04/13 00:49:37;;;;;;;10.60;8.88;;;;;;;17.06;54.46;100126.50;1729419;82;21687;-61
2021/04/13 00:52:10;;;;;;;10.78;9.45;;;;;;;17.06;54.43;100125.97;1717205;82;22131;-61
2021/04/13 00:54:57;;;;;;;10.68;9.08;;;;;;;17.07;54.41;100126.30;1712625;82;21601;-60
2021/04/13 00:57:32;;;;;;;10.25;9.25;;;;;;;17.08;54.38;100131.15;1735269;82;21130;-60
2021/04/13 01:00:00;;;;;;;10.65;9.60;;;;;;;17.08;54.35;100125.78;1732116;82;22150;-61
2021/04/13 01:02:29;;;;;;;11.25;9.25;;;;;;;17.08;54.38;100123.09;1717541;82;21180;-60
2021/04/13 01:05:08;;;;;;;10.72;9.48;;;;;;;17.08;54.34;100125.78;1734896;82;21674;-61
2021/04/13 01:07:52;;;;;;;10.35;9.25;;;;;;;17.09;54.30;100120.70;1719313;82;21622;-59
2021/04/13 01:10:35;;;;;;;10.78;9.78;;;;;;;17.10;54.31;100122.37;1734031;82;21134;-60
2021/04/13 01:13:16;;;;;;;9.68;8.65;;;;;;;17.08;54.31;100120.41;1693869;84;21203;-61
2021/04/13 01:15:51;;;;;;;9.60;8.60;;;;;;;17.08;54.28;100117.73;1734163;82;21134;-61
2021/04/13 01:18:21;;;;;;;;;;;;;;;17.07;54.29;100121.42;1730795;82;21239;-60
2021/04/13 01:21:15;;;;;;;10.13;8.28;;;;;;;17.07;54.29;100118.25;1715590;82;20263;-60
2021/04/13 01:23:51;;;;;;;;;;;;;;;17.00;54.39;100119.26;1734012;82;21167;-61
2021/04/13 01:26:12;;;;;;;10.25;8.33;;;;;;;17.00;54.37;100116.57;1770611;80;21847;-60
2021/04/13 01:28:41;;;;;;;10.38;8.95;;;;;;;16.93;54.48;100113.84;1762393;80;21594;-61
2021/04/13 01:34:40;;;;;;;11.37;10.00;;;;;;;16.96;54.39;100115.29;1770822;80;21567;-60
2021/04/13 01:37:24;;;;;;;;;;;;;;;16.98;54.38;100114.57;1763829;79;21562;-61
2021/04/13 01:42:23;;;;;;;11.10;9.73;;;;;;;16.93;54.50;100108.48;1810509;79;28743;-61
2021/04/13 01:44:58;;;;;;;12.25;10.95;;;;;;;16.91;54.47;100110.53;1726635;80;21145;-61
2021/04/13 01:47:25;;;;;;;10.23;9.08;;;;;;;16.93;54.44;100112.50;1774746;80;22261;-61
2021/04/13 01:50:06;;;;;;;9.68;8.43;;;;;;;16.94;54.42;100110.15;1808200;79;21168;-61
2021/04/13 01:52:37;;;;;;;10.95;9.85;;;;;;;16.95;54.36;100110.97;1808058;79;21612;-61
2021/04/13 01:55:09;;;;;;;11.75;10.00;;;;;;;16.95;54.36;100110.45;1778590;80;21206;-61
2021/04/13 01:58:08;;;;;;;10.45;9.45;;;;;;;16.97;54.32;100108.39;1755233;80;21452;-59
2021/04/13 02:00:46;;;;;;;10.18;9.10;;;;;;;16.97;54.32;100111.07;1735823;80;21468;-61
2021/04/13 02:06:45;;;;;;;10.63;9.53;;;;;;;17.00;54.23;100105.31;1819457;76;28324;-60
2021/04/13 02:09:35;;;;;;;11.20;8.93;;;;;;;16.97;54.21;100111.07;1792572;79;21170;-61
2021/04/13 02:12:07;;;;;;;12.78;9.90;;;;;;;16.97;54.20;100112.41;1804522;77;21400;-60
2021/04/13 02:14:50;;;;;;;9.80;8.80;;;;;;;16.97;54.17;100120.46;1810679;77;21638;-61
2021/04/13 02:17:27;;;;;;;11.28;10.00;;;;;;;16.98;54.13;100123.97;1788806;78;21192;-60
2021/04/13 02:19:54;;;;;;;10.95;9.85;;;;;;;16.97;54.13;100123.67;1794477;78;21172;-61
2021/04/13 02:22:22;;;;;;;10.18;9.10;;;;;;;16.96;54.14;100117.48;1776368;77;21122;-60
2021/04/13 02:24:53;;;;;;;12.35;9.58;;;;;;;16.96;54.12;100112.12;1796331;78;21174;-61
2021/04/13 02:27:24;;;;;;;11.75;10.08;;;;;;;16.98;54.13;100113.23;1779020;77;21182;-64
2021/04/13 02:29:56;;;;;;;10.82;9.68;;;;;;;16.97;54.14;100105.70;1804437;78;21535;-61
2021/04/13 02:32:28;;;;;;;11.48;10.28;;;;;;;16.98;54.10;100105.18;1787068;78;21203;-61
2021/04/13 02:35:04;;;;;;;11.12;9.63;;;;;;;16.98;54.05;100099.81;1790847;78;21134;-60
2021/04/13 02:37:43;;;;;;;10.85;9.58;;;;;;;16.98;54.05;100102.50;1787363;78;21195;-60
2021/04/13 02:40:32;;;;;;;10.55;9.53;;;;;;;16.97;54.04;100097.66;1798719;77;21173;-60
2021/04/13 02:43:03;;;;;;;12.23;9.85;;;;;;;16.97;53.98;100100.34;1783307;78;21150;-60
2021/04/13 02:45:47;;;;;;;10.60;9.50;;;;;;;16.96;54.01;100097.36;1796924;77;21118;-60
2021/04/13 02:48:32;;;;;;;10.53;9.25;;;;;;;16.96;54.00;100098.70;1804818;78;21129;-60
2021/04/13 02:51:04;;;;;;;10.88;8.90;;;;;;;16.96;54.01;100097.84;1787361;79;21524;-60
2021/04/13 02:53:36;;;;;;;14.07;10.13;;;;;;;16.95;54.01;100098.37;1782630;77;21125;-60
2021/04/13 02:56:08;;;;;;;10.80;9.68;;;;;;;16.95;54.04;100103.73;1789907;78;21146;-61
2021/04/13 02:58:51;;;;;;;10.45;9.38;;;;;;;16.95;53.97;100104.26;1788290;77;21093;-61
2021/04/13 03:01:21;;;;;;;;;;;;;;;16.95;54.00;100107.77;1819514;79;21238;-61
2021/04/13 03:03:48;;;;;;;10.93;9.83;;;;;;;16.95;53.96;100106.42;1786562;78;21145;-62
2021/04/13 03:06:18;;;;;;;11.05;9.25;;;;;;;16.87;54.09;100104.73;1806515;78;21146;-61
2021/04/13 03:08:47;;;;;;;12.65;10.70;;;;;;;16.87;54.11;100099.89;1798521;78;21178;-62
2021/04/13 03:11:24;;;;;;;10.95;9.88;;;;;;;16.88;54.08;100096.17;1770871;79;21138;-62
2021/04/13 03:13:54;;;;;;;12.93;10.48;;;;;;;16.90;54.10;100095.45;1756067;78;21173;-60
2021/04/13 03:16:35;;;;;;;10.98;9.78;;;;;;;16.90;54.02;100088.74;1798567;78;21158;-60
2021/04/13 03:19:07;;;;;;;10.72;9.63;;;;;;;16.91;54.02;100086.39;1790086;78;21198;-61
2021/04/13 03:21:36;;;;;;;11.40;10.23;;;;;;;16.91;54.00;100094.44;1798650;77;21139;-61
2021/04/13 03:24:07;;;;;;;10.35;8.73;;;;;;;16.92;54.02;100100.12;1799075;77;21174;-62
2021/04/13 03:26:44;;;;;;;11.05;9.88;;;;;;;16.91;53.97;100099.80;1782406;77;21145;-61
2021/04/13 03:29:20;;;;;;;11.18;10.08;;;;;;;16.92;53.97;100100.12;1776659;78;22626;-62
2021/04/13 03:31:49;;;;;;;9.70;8.78;;;;;;;16.93;53.95;100110.34;1780529;78;21163;-61
2021/04/13 03:34:17;;;;;;;10.85;9.85;;;;;;;16.91;53.92;100109.20;1740503;79;21126;-61
2021/04/13 03:36:46;;;;;;;10.93;9.55;;;;;;;16.92;53.90;100114.89;1805494;77;21141;-61
2021/04/13 03:39:31;;;;;;;11.22;9.60;;;;;;;16.93;53.91;100115.70;1801380;77;21596;-62
2021/04/13 03:41:59;;;;;;;10.65;9.55;;;;;;;16.93;53.93;100107.14;1790536;78;21377;-61
2021/04/13 03:44:26;;;;;;;11.65;10.00;;;;;;;16.93;53.90;100116.53;1795947;77;21166;-61
2021/04/13 03:46:54;;;;;;;10.90;9.60;;;;;;;16.92;53.87;100102.81;1785562;78;21566;-60
2021/04/13 03:49:30;;;;;;;11.48;9.70;;;;;;;16.93;53.87;100111.16;1787274;79;21590;-61
2021/04/13 03:52:09;;;;;;;12.15;9.53;;;;;;;16.93;53.89;100105.80;1799740;77;21132;-61
2021/04/13 03:54:38;;;;;;;10.53;9.18;;;;;;;16.94;53.82;100105.27;1801633;77;21428;-60
2021/04/13 03:57:06;;;;;;;12.93;10.25;;;;;;;16.92;53.82;100104.16;1811435;78;21201;-60
2021/04/13 03:59:36;;;;;;;11.05;9.85;;;;;;;16.93;53.87;100109.00;1785561;79;21146;-61
2021/04/13 04:02:07;;;;;;;10.38;9.00;;;;;;;16.93;53.86;100111.16;1794513;77;21186;-61
2021/04/13 04:04:38;;;;;;;14.33;10.65;;;;;;;16.93;53.83;100113.84;1784219;79;21187;-61
2021/04/13 04:09:55;;;;;;;12.25;10.90;;;;;;;16.96;53.83;100112.12;1794747;79;28753;-61
2021/04/13 04:12:26;;;;;;;11.12;9.93;;;;;;;16.93;53.82;100110.34;1786779;80;22355;-61
2021/04/13 04:15:08;;;;;;;12.18;10.75;;;;;;;16.92;53.84;100112.20;1779104;80;22069;-61
2021/04/13 04:17:39;;;;;;;11.47;9.73;;;;;;;16.93;53.82;100115.19;1759012;80;21178;-61
2021/04/13 04:20:10;;;;;;;11.68;9.85;;;;;;;16.92;53.81;100114.89;1797079;79;21152;-61
2021/04/13 04:22:53;;;;;;;11.20;9.70;;;;;;;16.92;53.85;100113.55;1794748;79;21167;-62
2021/04/13 04:25:32;;;;;;;11.43;10.15;;;;;;;16.93;53.85;100115.70;1803086;79;21171;-60
2021/04/13 04:28:06;;;;;;;11.28;9.98;;;;;;;16.92;53.82;100120.26;1783474;79;21193;-60
2021/04/13 04:30:34;;;;;;;11.03;9.78;;;;;;;16.91;53.84;100118.59;1765439;79;21137;-61
2021/04/13 04:33:03;;;;;;;10.88;8.88;;;;;;;16.91;53.84;100111.87;1773828;80;21530;-61
2021/04/13 04:35:43;;;;;;;11.20;10.00;;;;;;;16.91;53.84;100107.85;1771789;80;21187;-61
2021/04/13 04:38:27;;;;;;;11.80;10.05;;;;;;;16.90;53.84;100117.77;1778974;79;21199;-60
2021/04/13 04:41:07;;;;;;;10.88;9.68;;;;;;;16.91;53.84;100110.53;1763653;80;21394;-60
2021/04/13 04:43:58;;;;;;;12.07;9.80;;;;;;;16.91;53.83;100111.87;1798171;79;21155;-60
2021/04/13 04:46:42;;;;;;;11.08;9.88;;;;;;;16.92;53.81;100123.44;1776524;79;21135;-62
2021/04/13 04:49:18;;;;;;;10.90;9.68;;;;;;;16.90;53.84;100121.80;1779108;80;21674;-62
2021/04/13 04:51:51;;;;;;;10.98;9.60;;;;;;;16.90;53.89;100122.28;1765839;80;21155;-60
2021/04/13 04:54:18;;;;;;;;;;;;;;;16.90;53.87;100120.94;1784408;80;22108;-60
2021/04/13 04:56:46;;;;;;;11.30;10.10;;;;;;;16.91;53.84;100123.95;1789848;80;20295;-62
2021/04/13 04:59:13;;;;;;;12.90;10.45;;;;;;;16.84;54.00;100117.72;1780639;79;21124;-61
2021/04/13 05:01:42;;;;;;;11.78;10.40;;;;;;;16.85;54.01;100116.70;1779442;79;21187;-61
2021/04/13 05:04:11;;;;;;;12.33;9.95;;;;;;;16.86;53.94;100119.69;1797274;78;21664;-61
2021/04/13 05:06:39;;;;;;;12.25;10.00;;;;;;;16.88;53.93;100109.58;1765836;79;21260;-62
2021/04/13 05:09:06;;;;;;;12.95;10.40;;;;;;;16.89;53.93;100113.94;1762046;80;21604;-61
2021/04/13 05:11:34;;;;;;;11.30;10.10;;;;;;;16.92;54.22;100111.36;1766730;81;21504;-60
2021/04/13 05:14:02;;;;;;;11.22;10.03;;;;;;;16.93;54.27;100111.16;1789355;80;21162;-59
2021/04/13 05:16:31;;;;;;;10.82;9.73;;;;;;;16.95;54.24;100109.62;1753009;81;21164;-62
2021/04/13 05:18:58;;;;;;;10.65;9.50;;;;;;;16.96;54.23;100105.89;1771005;80;21247;-61
2021/04/13 05:21:26;;;;;;;11.22;10.03;;;;;;;16.96;54.20;100102.72;1759518;80;21146;-60
2021/04/13 05:23:53;;;;;;;11.12;9.95;;;;;;;16.97;54.17;100109.73;1773256;79;21182;-61
2021/04/13 05:26:20;;;;;;;10.98;9.73;;;;;;;16.98;54.13;100109.20;1756160;80;21109;-60
2021/04/13 05:28:48;;;;;;;12.78;10.30;;;;;;;16.99;54.07;100104.17;1777990;79;21134;-60
2021/04/13 05:31:15;;;;;;;12.35;10.58;;;;;;;16.99;54.03;100103.64;1777256;80;21191;-60
2021/04/13 05:33:43;;;;;;;13.13;10.10;;;;;;;17.00;54.04;100097.27;1757806;80;21902;-61
2021/04/13 05:36:10;;;;;;;12.30;10.13;;;;;;;17.01;53.97;100103.45;1797930;78;21631;-61
2021/04/13 05:38:41;;;;;;;11.15;9.88;;;;;;;17.01;53.92;100096.73;1792352;78;21155;-61
2021/04/13 05:41:08;;;;;;;11.97;9.65;;;;;;;17.02;53.94;100096.55;1784869;79;21415;-60
2021/04/13 05:43:39;;;;;;;11.22;10.03;;;;;;;17.02;53.89;100095.20;1766140;80;21393;-60
2021/04/13 05:46:06;;;;;;;11.12;10.03;;;;;;;17.03;53.84;100096.02;1785361;80;21127;-61
2021/04/13 05:48:33;;;;;;;14.58;10.38;;;;;;;17.02;53.82;100097.89;1778939;80;21607;-61
2021/04/13 05:51:01;;;;;;;12.00;10.20;;;;;;;17.04;53.80;100097.17;1773585;80;21159;-61
2021/04/13 05:53:28;;;;;;;11.05;9.18;;;;;;;17.05;53.76;100093.96;1771789;80;21179;-60
2021/04/13 05:55:55;;;;;;;12.50;10.93;;;;;;;17.05;53.74;100093.96;1777036;80;21202;-61
2021/04/13 05:58:27;;;;;;;11.50;10.00;;;;;;;17.06;53.70;100093.77;1789729;79;21160;-61
2021/04/13 06:00:56;;;;;;;11.63;9.90;;;;;;;17.05;53.73;100094.78;1767541;80;21144;-60
2021/04/13 06:03:24;;;;;;;11.20;10.00;;;;;;;17.05;53.67;100092.09;1803911;78;21115;-63
2021/04/13 06:05:55;;;;;;;11.95;10.48;;;;;;;17.06;53.67;100088.40;1780211;80;21115;-61
2021/04/13 06:08:22;;;;;;;11.65;10.45;;;;;;;17.06;53.61;100087.58;1775012;80;21355;-60
2021/04/13 06:10:53;;;;;;;12.43;10.05;;;;;;;17.07;53.59;100092.75;1721878;83;21555;-60
2021/04/13 06:13:22;;;;;;;13.72;11.03;;;;;;;17.08;53.56;100098.94;1759372;80;22101;-60
2021/04/13 06:15:50;;;;;;;13.80;10.28;;;;;;;17.08;53.57;100099.75;1717541;81;21186;-61
2021/04/13 06:18:18;;;;;;;11.33;10.13;;;;;;;17.09;53.55;100100.58;1758582;80;21176;-60
2021/04/13 06:20:46;;;;;;;11.25;9.83;;;;;;;17.09;53.55;100103.26;1712091;83;21400;-61
2021/04/13 06:23:14;;;;;;;11.68;9.98;;;;;;;17.09;53.53;100103.26;1763513;80;21215;-61
2021/04/13 06:25:41;;;;;;;13.15;11.18;;;;;;;17.10;53.51;100105.75;1733907;81;21151;-61
2021/04/13 06:28:08;;;;;;;11.55;10.08;;;;;;;17.10;53.48;100104.93;1742163;81;21203;-61
2021/04/13 06:30:40;;;;;;;10.32;9.25;;;;;;;17.10;53.46;100109.77;1749893;81;21095;-60
2021/04/13 06:33:05;;;;;;;12.45;11.05;;;;;;;17.12;53.44;100110.11;1748763;81;21224;-60
2021/04/13 06:35:32;;;;;;;11.20;10.03;;;;;;;17.12;53.44;100111.45;1753749;81;21191;-61
2021/04/13 06:38:03;;;;;;;11.43;10.18;;;;;;;17.12;53.43;100107.42;1748340;81;21183;-60
2021/04/13 06:41:23;;;;;;;10.95;9.85;;;;;;;17.13;53.46;100103.69;1762310;80;21171;-60
2021/04/13 06:43:56;;;;;;;10.30;9.03;;;;;;;17.13;53.43;100098.32;1730693;80;21175;-59
2021/04/13 06:46:36;;;;;;;12.98;10.65;;;;;;;17.10;53.49;100102.25;1745526;81;25705;-60
2021/04/13 06:49:16;;;;;;;11.45;9.83;;;;;;;17.09;53.51;100105.95;1771555;80;21176;-60
2021/04/13 06:52:05;;;;;;;10.50;9.40;;;;;;;17.08;53.50;100107.81;1748413;81;21103;-60
2021/04/13 06:54:47;;;;;;;11.15;10.05;;;;;;;17.09;53.51;100104.60;1753224;80;21164;-61
2021/04/13 06:57:36;;;;;;;11.30;10.10;;;;;;;17.07;53.52;100108.86;1732740;81;21344;-61
2021/04/13 07:00:27;;;;;;;12.07;10.43;;;;;;;17.08;53.54;100102.97;1727514;81;21397;-64
2021/04/13 07:03:17;;;;;;;12.47;9.48;;;;;;;17.07;53.53;100107.52;1745593;80;21160;-60
2021/04/13 07:05:50;;;;;;;11.80;9.65;;;;;;;17.05;53.55;100105.52;1735654;81;21164;-62
2021/04/13 07:08:38;;;;;;;11.43;9.85;;;;;;;17.06;53.56;100102.34;1722252;83;21194;-62
2021/04/13 07:11:25;;;;;;;11.33;10.23;;;;;;;17.05;53.54;100106.86;1781241;80;21125;-60
2021/04/13 07:14:13;;;;;;;11.68;10.53;;;;;;;17.05;53.55;100108.20;1750834;80;21209;-61
2021/04/13 07:16:47;;;;;;;13.10;9.90;;;;;;;17.05;53.56;100114.91;1744387;80;21151;-63
2021/04/13 07:19:24;;;;;;;11.93;9.73;;;;;;;17.05;53.60;100115.44;1750891;81;21168;-61
2021/04/13 07:22:20;;;;;;;10.95;9.85;;;;;;;17.05;53.61;100118.94;1786433;80;21161;-60
2021/04/13 07:24:58;;;;;;;13.90;9.70;;;;;;;17.06;53.60;100116.58;1746704;79;21243;-62
2021/04/13 07:27:34;;;;;;;11.80;10.60;;;;;;;17.05;53.56;100114.09;1778878;80;21341;-64
2021/04/13 07:30:08;;;;;;;14.03;10.00;;;;;;;17.06;53.58;100123.29;1718717;81;21350;-63
2021/04/13 07:32:36;;;;;;;11.63;10.43;;;;;;;17.06;53.55;100120.61;1749065;81;21126;-60
2021/04/13 07:35:13;;;;;;;11.10;10.00;;;;;;;17.06;53.58;100112.55;1780286;80;21525;-60
2021/04/13 07:37:46;;;;;;;12.58;10.30;;;;;;;17.07;53.54;100111.54;1777628;80;21402;-59
2021/04/13 07:40:30;;;;;;;11.45;9.95;;;;;;;17.09;53.51;100116.19;1786029;80;21381;-60
2021/04/13 07:43:15;;;;;;;11.48;10.35;;;;;;;17.11;53.50;100118.65;1781022;78;21167;-59
2021/04/13 07:46:17;;;;;;;11.20;9.93;;;;;;;17.11;53.48;100106.57;1771709;80;21190;-59
2021/04/13 07:49:12;;;;;;;11.18;9.98;;;;;;;17.12;53.48;100120.31;1756642;80;21151;-60
2021/04/13 07:51:55;;;;;;;12.58;10.38;;;;;;;17.12;53.47;100114.95;1774389;80;21199;-60
2021/04/13 07:54:58;;;;;;;12.35;10.13;;;;;;;17.13;53.50;100114.42;1788256;79;21577;-61
2021/04/13 07:57:47;;;;;;;13.72;10.50;;;;;;;17.14;53.50;100116.09;1778899;80;21215;-62
2021/04/13 08:00:37;;;;;;;11.85;10.63;;;;;;;17.15;53.51;100117.21;1779204;80;21181;-60
2021/04/13 08:03:24;;;;;;;11.25;10.13;;;;;;;17.15;53.48;100113.19;1784792;80;21139;-60
2021/04/13 08:05:54;;;;;;;11.45;10.25;;;;;;;17.16;53.47;100114.86;1781127;80;21163;-61
2021/04/13 08:08:37;;;;;;;14.07;11.05;;;;;;;17.17;53.48;100112.50;1761091;80;22572;-61
2021/04/13 08:11:08;;;;;;;13.08;10.90;;;;;;;17.19;53.45;100105.06;1780091;80;21160;-62
2021/04/13 08:13:37;;;;;;;12.68;10.55;;;;;;;17.20;53.46;100105.88;1784395;80;26072;-62
2021/04/13 08:16:07;;;;;;;12.37;10.40;;;;;;;17.21;53.49;100108.37;1773817;80;21581;-61
2021/04/13 08:18:44;;;;;;;12.03;10.72;;;;;;;17.23;53.49;100102.78;1740011;81;21576;-62
2021/04/13 08:21:27;;;;;;;11.68;10.45;;;;;;;17.26;53.40;100103.73;1786056;80;21335;-62
2021/04/13 08:23:55;;;;;;;12.07;10.53;;;;;;;17.29;53.41;100106.02;1762893;81;21175;-60
2021/04/13 08:26:31;;;;;;;12.15;10.10;;;;;;;17.30;53.44;100103.62;1778548;80;21626;-60
2021/04/13 08:29:04;;;;;;;11.63;10.23;;;;;;;17.32;53.47;100102.91;1785317;80;21625;-61
2021/04/13 08:35:14;;;;;;;12.30;10.93;;;;;;;17.36;53.45;100094.75;1762907;81;21384;-61
2021/04/13 08:37:55;;;;;;;11.80;10.60;;;;;;;17.37;53.44;100095.08;1744155;81;21181;-60
2021/04/13 08:40:34;;;;;;;11.90;10.38;;;;;;;17.37;53.49;100093.73;1743734;80;21160;-61
2021/04/13 08:43:23;;;;;;;13.78;12.13;;;;;;;17.39;53.48;100090.33;1749124;81;21314;-60
2021/04/13 08:46:16;;;;;;;11.75;10.53;;;;;;;17.40;53.44;100081.75;1736741;80;21166;-62
2021/04/13 08:49:02;;;;;;;11.83;10.00;;;;;;;17.42;53.42;100082.37;1763566;81;21344;-60
2021/04/13 08:51:45;;;;;;;12.00;10.18;;;;;;;17.43;53.46;100084.86;1745532;81;21230;-61
2021/04/13 08:54:31;;;;;;;12.15;10.95;;;;;;;17.44;53.44;100085.19;1755327;81;21632;-63
2021/04/13 08:57:04;;;;;;;11.12;9.93;;;;;;;17.45;53.43;100089.51;1741484;81;21646;-63
2021/04/13 08:59:36;;;;;;;12.20;10.93;;;;;;;17.47;53.38;100094.68;1784230;80;21118;-63
2021/04/13 09:02:23;;;;;;;12.43;11.03;;;;;;;17.49;53.36;100092.61;1752039;80;21366;-62
2021/04/13 09:05:11;;;;;;;12.33;11.03;;;;;;;17.50;53.33;100095.63;1736488;81;21210;-61
2021/04/13 09:08:14;;;;;;;14.35;10.75;;;;;;;17.51;53.34;100089.20;1755070;81;21171;-62
2021/04/13 09:11:18;;;;;;;15.43;12.65;;;;;;;17.53;53.33;100091.69;1785035;79;21205;-61
2021/04/13 09:13:55;;;;;;;12.23;11.05;;;;;;;17.53;53.32;100091.69;1777476;80;21568;-62
2021/04/13 09:16:24;;;;;;;13.58;11.93;;;;;;;17.52;53.31;100087.34;1786409;79;21409;-60
2021/04/13 09:18:58;;;;;;;11.90;10.70;;;;;;;17.52;53.29;100082.81;1774513;79;21204;-61
2021/04/13 09:21:48;;;;;;;11.78;10.55;;;;;;;17.54;53.28;100084.78;1755815;81;21317;-61
2021/04/13 09:24:20;;;;;;;12.05;10.68;;;;;;;17.56;53.27;100081.86;1703450;81;21152;-62
2021/04/13 09:27:17;;;;;;;12.73;11.53;;;;;;;17.57;53.30;100087.56;1766509;80;21120;-60
2021/04/13 09:29:54;;;;;;;13.55;12.05;;;;;;;17.58;53.27;100079.83;1760786;81;21375;-61
2021/04/13 09:32:31;;;;;;;12.53;11.15;;;;;;;17.59;53.27;100079.59;1781248;80;21123;-63
2021/04/13 09:35:21;;;;;;;11.68;10.48;;;;;;;17.60;53.31;100074.55;1753362;81;21194;-63
2021/04/13 09:38:20;;;;;;;11.73;10.53;;;;;;;17.62;53.27;100074.34;1764748;80;21180;-62
2021/04/13 09:41:02;;;;;;;11.45;10.28;;;;;;;17.63;53.23;100069.27;1754816;81;21199;-63
2021/04/13 09:43:58;;;;;;;11.97;10.78;;;;;;;17.65;53.24;100072.58;1776138;80;21994;-60
2021/04/13 09:46:51;;;;;;;12.28;10.98;;;;;;;17.66;53.27;100072.38;1756087;81;21176;-61
2021/04/13 09:49:41;;;;;;;11.48;10.30;;;;;;;17.67;53.24;100073.19;1785947;80;21159;-61
2021/04/13 09:52:47;;;;;;;12.90;10.72;;;;;;;17.68;53.22;100074.34;1759217;81;21202;-60
2021/04/13 09:55:56;;;;;;;13.40;10.32;;;;;;;17.70;53.21;100075.48;1781678;80;21609;-61
2021/04/13 09:58:48;;;;;;;12.45;10.93;;;;;;;17.70;53.16;100072.80;1755316;80;21209;-59
2021/04/13 10:01:42;;;;;;;11.57;10.25;;;;;;;17.71;53.17;100074.95;1766797;80;21615;-62
2021/04/13 10:04:36;;;;;;;11.73;10.53;;;;;;;17.71;53.15;100073.09;1792422;78;21176;-62
2021/04/13 10:07:25;;;;;;;12.85;10.82;;;;;;;17.73;53.15;100071.55;1753193;81;21128;-60
2021/04/13 10:09:53;;;;;;;11.73;10.63;;;;;;;17.72;53.13;100066.69;1781838;79;21301;-61
2021/04/13 10:12:50;;;;;;;12.73;10.55;;;;;;;17.73;53.14;100064.33;1756025;80;21687;-60
2021/04/13 10:15:40;;;;;;;11.28;10.08;;;;;;;17.75;53.08;100066.78;1765703;80;21172;-59
2021/04/13 10:18:50;;;;;;;11.63;10.40;;;;;;;17.76;53.10;100061.73;1751551;80;21211;-62
2021/04/13 10:21:37;;;;;;;10.72;9.70;;;;;;;17.77;53.06;100067.41;1756914;80;21608;-62
2021/04/13 10:24:46;;;;;;;11.88;9.73;;;;;;;17.76;53.08;100060.39;1773579;80;21200;-62
2021/04/13 10:27:57;;;;;;;12.13;10.88;;;;;;;17.76;53.13;100055.84;1760504;80;21635;-62
2021/04/13 10:30:56;;;;;;;11.75;10.55;;;;;;;17.78;53.13;100066.39;1759450;80;21195;-62
2021/04/13 10:34:01;;;;;;;10.75;9.65;;;;;;;17.77;53.16;100064.72;1784982;79;21132;-63
2021/04/13 10:36:43;;;;;;;11.85;10.28;;;;;;;17.77;53.07;100064.72;1786023;79;21184;-62
2021/04/13 10:39:39;;;;;;;12.88;10.85;;;;;;;17.77;53.11;100061.53;1767142;80;21201;-62
2021/04/13 10:42:29;;;;;;;11.15;10.05;;;;;;;17.78;53.14;100059.14;1762338;80;21386;-62
2021/04/13 10:45:26;;;;;;;11.05;9.95;;;;;;;17.79;53.10;100058.62;1769315;80;21611;-61
2021/04/13 10:48:40;;;;;;;12.03;10.00;;;;;;;17.79;53.10;100064.84;1753903;80;21383;-63
2021/04/13 10:51:59;;;;;;;10.45;9.45;;;;;;;17.79;53.11;100058.13;1762862;80;21640;-61
2021/04/13 10:54:52;;;;;;;10.88;9.88;;;;;;;17.79;53.13;100061.30;1781313;80;21108;-63
2021/04/13 10:57:48;;;;;;;11.12;10.03;;;;;;;17.78;53.16;100055.64;1742644;81;21385;-62
2021/04/13 11:00:42;;;;;;;10.80;9.45;;;;;;;17.78;53.18;100057.80;1755085;80;21238;-62
2021/04/13 11:04:06;;;;;;;11.25;10.05;;;;;;;17.78;53.18;100050.27;1763173;80;21628;-62
2021/04/13 11:06:59;;;;;;;;;;;;;;;17.79;53.18;100054.09;1769794;80;21175;-62
2021/04/13 11:09:50;;;;;;;10.35;9.35;;;;;;;17.79;53.18;100049.21;1785335;80;20213;-62
2021/04/13 11:12:39;;;;;;;10.03;9.03;;;;;;;17.73;53.29;100049.55;1792833;78;21177;-63
2021/04/13 11:15:25;;;;;;;10.85;9.78;;;;;;;17.75;53.28;100051.52;1706118;80;21230;-61
2021/04/13 11:18:22;;;;;;;11.20;10.10;;;;;;;17.78;53.22;100044.36;1771579;80;21639;-61
2021/04/13 11:21:22;;;;;;;23.38;20.10;;;;;;;17.79;53.18;100040.66;1730756;79;21584;-67
2021/04/13 11:24:11;;;;;;;21.52;17.50;;;;;;;17.84;58.30;100014.52;1753891;81;21132;-66
2021/04/13 11:27:09;;;;;;;17.52;15.72;;;;;;;18.17;60.45;100019.82;1767187;80;21551;-66
2021/04/13 11:30:19;;;;;;;20.02;16.00;;;;;;;18.58;60.20;100021.85;1770199;80;21166;-62
2021/04/13 11:33:00;;;;;;;18.48;16.55;;;;;;;18.92;59.52;100038.70;1758336;80;21174;-62
2021/04/13 11:35:42;;;;;;;17.35;15.40;;;;;;;19.12;59.43;100041.27;1769412;80;21195;-65
2021/04/13 11:38:42;;;;;;;17.42;15.58;;;;;;;19.18;58.77;100040.39;1765037;80;21195;-67
2021/04/13 11:41:36;;;;;;;19.73;16.45;;;;;;;19.19;58.43;100033.98;1748026;81;22257;-70
2021/04/13 11:44:21;;;;;;;17.95;15.58;;;;;;;19.18;59.42;100014.81;1750005;80;21216;-68
2021/04/13 11:47:15;;;;;;;16.67;14.87;;;;;;;19.29;61.17;100015.46;1753495;81;21196;-66
2021/04/13 11:50:27;;;;;;;16.42;14.80;;;;;;;19.50;61.77;100037.70;1763722;81;21159;-65
2021/04/13 11:53:04;;;;;;;21.25;14.65;;;;;;;19.61;61.80;100036.98;1721418;82;21164;-71
2021/04/13 11:55:46;;;;;;;17.65;14.85;;;;;;;19.61;61.99;100032.95;1745558;81;21798;-66
2021/04/13 11:58:22;;;;;;;17.42;14.93;;;;;;;19.57;61.88;100028.52;1760468;80;21183;-64
2021/04/13 12:00:55;;;;;;;16.17;13.53;;;;;;;19.53;62.06;100026.46;1757158;80;21165;-65
2021/04/13 12:03:25;;;;;;;;;;;;;;;19.55;62.74;100028.44;1764870;80;21565;-63
2021/04/13 12:05:56;;;;;;;17.27;14.73;;;;;;;19.58;63.16;100026.11;1761606;80;20518;-66
2021/04/13 12:08:38;;;;;;;16.52;14.60;;;;;;;19.45;63.75;100022.17;1761075;80;21356;-65
2021/04/13 12:11:38;;;;;;;16.40;14.80;;;;;;;19.38;64.19;100018.73;1756936;80;21135;-68
2021/04/13 12:14:38;;;;;;;18.02;15.95;;;;;;;19.32;64.41;100016.38;1743401;81;21204;-69
2021/04/13 12:17:13;;;;;;;17.12;15.15;;;;;;;19.24;64.81;100014.78;1777935;79;21610;-66
2021/04/13 12:20:19;;;;;;;15.32;12.98;;;;;;;19.17;65.40;100012.65;1753484;80;21180;-69
2021/04/13 12:22:47;;;;;;;15.85;14.13;;;;;;;19.19;65.86;100011.09;1769193;80;21374;-68
2021/04/13 12:25:45;;;;;;;15.80;14.10;;;;;;;19.21;65.96;100011.17;1768768;80;21166;-65
2021/04/13 12:28:16;;;;;;;14.75;13.25;;;;;;;19.15;66.62;100010.70;1776425;80;21602;-67
2021/04/13 12:30:49;;;;;;;15.25;13.65;;;;;;;19.07;67.57;100010.16;1754380;80;21183;-66